sensor_id;sensor_type;location;lat;lon;timestamp;P1;durP1;ratioP1;P2;durP2;ratioP2
77136;SDS011;66102;48.542;-2.970;2023-03-03T00:01:10;41.88;;;20.15;;
77136;SDS011;66102;48.542;-2.970;2023-03-03T00:03:36;50.00;;;19.67;;
77136;SDS011;66102;48.542;-2.970;2023-03-03T00:06:03;46.40;;;20.55;;
77136;SDS011;66102;48.542;-2.970;2023-03-03T00:08:29;41.00;;;20.55;;
77136;SDS011;66102;48.542;-2.970;2023-03-03T00:10:56;44.63;;;20.50;;
77136;SDS011;66102;48.542;-2.970;2023-03-03T00:13:25;45.20;;;20.48;;
77136;SDS011;66102;48.542;-2.970;2023-03-03T00:15:51;42.10;;;20.48;;
77136;SDS011;66102;48.542;-2.970;2023-03-03T00:18:23;42.08;;;19.02;;
77136;SDS011;66102;48.542;-2.970;2023-03-03T00:20:54;38.88;;;19.85;;
77136;SDS011;66102;48.542;-2.970;2023-03-03T00:25:50;36.90;;;17.85;;
77136;SDS011;66102;48.542;-2.970;2023-03-03T00:28:40;38.72;;;19.77;;
77136;SDS011;66102;48.542;-2.970;2023-03-03T00:31:17;38.88;;;18.83;;
77136;SDS011;66102;48.542;-2.970;2023-03-03T00:33:45;36.00;;;17.70;;
77136;SDS011;66102;48.542;-2.970;2023-03-03T00:38:43;35.05;;;17.80;;
77136;SDS011;66102;48.542;-2.970;2023-03-03T00:41:19;34.22;;;15.98;;
77136;SDS011;66102;48.542;-2.970;2023-03-03T00:43:47;31.60;;;15.18;;
77136;SDS011;66102;48.542;-2.970;2023-03-03T00:46:17;35.15;;;16.13;;
77136;SDS011;66102;48.542;-2.970;2023-03-03T00:48:44;30.75;;;13.70;;
77136;SDS011;66102;48.542;-2.970;2023-03-03T00:53:37;33.28;;;15.70;;
77136;SDS011;66102;48.542;-2.970;2023-03-03T00:56:03;33.67;;;14.15;;
77136;SDS011;66102;48.542;-2.970;2023-03-03T00:58:29;32.85;;;15.38;;
77136;SDS011;66102;48.542;-2.970;2023-03-03T01:00:55;24.90;;;13.38;;
77136;SDS011;66102;48.542;-2.970;2023-03-03T01:03:23;29.73;;;12.80;;
77136;SDS011;66102;48.542;-2.970;2023-03-03T01:05:50;25.55;;;12.75;;
77136;SDS011;66102;48.542;-2.970;2023-03-03T01:08:16;28.92;;;13.75;;
77136;SDS011;66102;48.542;-2.970;2023-03-03T01:11:05;24.95;;;11.98;;
77136;SDS011;66102;48.542;-2.970;2023-03-03T01:13:30;25.00;;;12.32;;
77136;SDS011;66102;48.542;-2.970;2023-03-03T01:15:57;25.63;;;11.75;;
77136;SDS011;66102;48.542;-2.970;2023-03-03T01:18:24;24.60;;;11.68;;
77136;SDS011;66102;48.542;-2.970;2023-03-03T01:20:50;21.38;;;9.65;;
77136;SDS011;66102;48.542;-2.970;2023-03-03T01:23:16;23.45;;;10.32;;
77136;SDS011;66102;48.542;-2.970;2023-03-03T01:25:42;24.17;;;11.18;;
77136;SDS011;66102;48.542;-2.970;2023-03-03T01:28:09;19.63;;;8.48;;
77136;SDS011;66102;48.542;-2.970;2023-03-03T01:30:35;17.98;;;8.32;;
77136;SDS011;66102;48.542;-2.970;2023-03-03T01:33:01;18.50;;;8.63;;
77136;SDS011;66102;48.542;-2.970;2023-03-03T01:35:27;20.08;;;7.72;;
77136;SDS011;66102;48.542;-2.970;2023-03-03T01:37:54;17.77;;;7.97;;
77136;SDS011;66102;48.542;-2.970;2023-03-03T01:40:21;20.23;;;7.15;;
77136;SDS011;66102;48.542;-2.970;2023-03-03T01:42:47;15.48;;;7.18;;
77136;SDS011;66102;48.542;-2.970;2023-03-03T01:45:15;18.08;;;6.55;;
77136;SDS011;66102;48.542;-2.970;2023-03-03T01:47:43;19.65;;;6.72;;
77136;SDS011;66102;48.542;-2.970;2023-03-03T01:50:11;18.35;;;6.88;;
77136;SDS011;66102;48.542;-2.970;2023-03-03T01:52:40;21.77;;;7.57;;
77136;SDS011;66102;48.542;-2.970;2023-03-03T01:55:08;20.75;;;6.80;;
77136;SDS011;66102;48.542;-2.970;2023-03-03T01:57:38;17.77;;;7.15;;
77136;SDS011;66102;48.542;-2.970;2023-03-03T02:00:05;17.42;;;5.65;;
77136;SDS011;66102;48.542;-2.970;2023-03-03T02:02:31;16.95;;;6.18;;
77136;SDS011;66102;48.542;-2.970;2023-03-03T02:04:59;13.02;;;5.63;;
77136;SDS011;66102;48.542;-2.970;2023-03-03T02:07:26;17.42;;;6.07;;
77136;SDS011;66102;48.542;-2.970;2023-03-03T02:12:19;18.52;;;5.63;;
77136;SDS011;66102;48.542;-2.970;2023-03-03T02:14:47;15.13;;;5.20;;
77136;SDS011;66102;48.542;-2.970;2023-03-03T02:17:13;11.82;;;5.32;;
77136;SDS011;66102;48.542;-2.970;2023-03-03T02:22:32;12.93;;;5.47;;
77136;SDS011;66102;48.542;-2.970;2023-03-03T02:25:01;10.80;;;4.53;;
77136;SDS011;66102;48.542;-2.970;2023-03-03T02:27:28;13.60;;;4.80;;
77136;SDS011;66102;48.542;-2.970;2023-03-03T02:29:56;15.82;;;4.88;;
77136;SDS011;66102;48.542;-2.970;2023-03-03T02:32:22;14.68;;;5.35;;
77136;SDS011;66102;48.542;-2.970;2023-03-03T02:34:49;13.50;;;5.70;;
77136;SDS011;66102;48.542;-2.970;2023-03-03T02:37:16;14.88;;;5.57;;
77136;SDS011;66102;48.542;-2.970;2023-03-03T02:39:42;15.25;;;5.35;;
77136;SDS011;66102;48.542;-2.970;2023-03-03T02:42:10;15.00;;;5.78;;
77136;SDS011;66102;48.542;-2.970;2023-03-03T02:44:39;18.30;;;6.95;;
77136;SDS011;66102;48.542;-2.970;2023-03-03T02:47:05;18.27;;;5.07;;
77136;SDS011;66102;48.542;-2.970;2023-03-03T02:49:33;15.10;;;5.95;;
77136;SDS011;66102;48.542;-2.970;2023-03-03T02:52:00;14.55;;;5.20;;
77136;SDS011;66102;48.542;-2.970;2023-03-03T02:54:27;16.25;;;6.47;;
77136;SDS011;66102;48.542;-2.970;2023-03-03T02:56:54;15.35;;;6.10;;
77136;SDS011;66102;48.542;-2.970;2023-03-03T02:59:20;12.35;;;5.63;;
77136;SDS011;66102;48.542;-2.970;2023-03-03T03:01:47;16.30;;;6.93;;
77136;SDS011;66102;48.542;-2.970;2023-03-03T03:04:17;20.38;;;6.78;;
77136;SDS011;66102;48.542;-2.970;2023-03-03T03:06:44;17.85;;;6.38;;
77136;SDS011;66102;48.542;-2.970;2023-03-03T03:09:10;17.63;;;7.20;;
77136;SDS011;66102;48.542;-2.970;2023-03-03T03:11:37;15.15;;;7.22;;
77136;SDS011;66102;48.542;-2.970;2023-03-03T03:14:04;20.48;;;6.68;;
77136;SDS011;66102;48.542;-2.970;2023-03-03T03:16:31;21.60;;;6.90;;
77136;SDS011;66102;48.542;-2.970;2023-03-03T03:18:58;17.73;;;6.28;;
77136;SDS011;66102;48.542;-2.970;2023-03-03T03:21:24;16.75;;;7.25;;
77136;SDS011;66102;48.542;-2.970;2023-03-03T03:23:50;17.00;;;7.20;;
77136;SDS011;66102;48.542;-2.970;2023-03-03T03:26:16;16.17;;;5.95;;
77136;SDS011;66102;48.542;-2.970;2023-03-03T03:28:44;17.83;;;7.10;;
77136;SDS011;66102;48.542;-2.970;2023-03-03T03:31:11;15.60;;;6.57;;
77136;SDS011;66102;48.542;-2.970;2023-03-03T03:33:37;16.15;;;6.13;;
77136;SDS011;66102;48.542;-2.970;2023-03-03T03:36:03;16.23;;;6.30;;
77136;SDS011;66102;48.542;-2.970;2023-03-03T03:38:30;20.10;;;7.10;;
77136;SDS011;66102;48.542;-2.970;2023-03-03T03:40:56;14.43;;;6.15;;
77136;SDS011;66102;48.542;-2.970;2023-03-03T03:43:22;14.68;;;7.05;;
77136;SDS011;66102;48.542;-2.970;2023-03-03T03:45:49;16.67;;;5.45;;
77136;SDS011;66102;48.542;-2.970;2023-03-03T03:48:15;15.73;;;5.97;;
77136;SDS011;66102;48.542;-2.970;2023-03-03T03:50:43;16.80;;;5.40;;
77136;SDS011;66102;48.542;-2.970;2023-03-03T03:53:09;16.52;;;5.97;;
77136;SDS011;66102;48.542;-2.970;2023-03-03T03:55:35;19.92;;;6.25;;
77136;SDS011;66102;48.542;-2.970;2023-03-03T03:58:02;13.68;;;5.43;;
77136;SDS011;66102;48.542;-2.970;2023-03-03T04:00:28;17.73;;;5.95;;
77136;SDS011;66102;48.542;-2.970;2023-03-03T04:02:54;13.10;;;5.72;;
77136;SDS011;66102;48.542;-2.970;2023-03-03T04:05:20;15.90;;;5.43;;
77136;SDS011;66102;48.542;-2.970;2023-03-03T04:07:46;14.40;;;5.90;;
77136;SDS011;66102;48.542;-2.970;2023-03-03T04:10:12;11.70;;;5.22;;
77136;SDS011;66102;48.542;-2.970;2023-03-03T04:12:38;24.90;;;5.95;;
77136;SDS011;66102;48.542;-2.970;2023-03-03T04:15:05;16.52;;;7.25;;
77136;SDS011;66102;48.542;-2.970;2023-03-03T04:17:31;11.48;;;4.93;;
77136;SDS011;66102;48.542;-2.970;2023-03-03T04:19:57;12.23;;;4.88;;
77136;SDS011;66102;48.542;-2.970;2023-03-03T04:22:23;14.25;;;5.25;;
77136;SDS011;66102;48.542;-2.970;2023-03-03T04:24:49;14.95;;;5.05;;
77136;SDS011;66102;48.542;-2.970;2023-03-03T04:27:15;16.27;;;6.30;;
77136;SDS011;66102;48.542;-2.970;2023-03-03T04:29:42;14.18;;;4.95;;
77136;SDS011;66102;48.542;-2.970;2023-03-03T04:32:08;14.02;;;6.25;;
77136;SDS011;66102;48.542;-2.970;2023-03-03T04:34:34;13.90;;;5.70;;
77136;SDS011;66102;48.542;-2.970;2023-03-03T04:37:00;14.32;;;6.22;;
77136;SDS011;66102;48.542;-2.970;2023-03-03T04:39:27;16.85;;;5.57;;
77136;SDS011;66102;48.542;-2.970;2023-03-03T04:41:53;12.98;;;4.93;;
77136;SDS011;66102;48.542;-2.970;2023-03-03T04:44:19;16.17;;;5.60;;
77136;SDS011;66102;48.542;-2.970;2023-03-03T04:46:46;15.57;;;5.82;;
77136;SDS011;66102;48.542;-2.970;2023-03-03T04:49:12;12.85;;;5.35;;
77136;SDS011;66102;48.542;-2.970;2023-03-03T04:51:38;15.35;;;6.25;;
77136;SDS011;66102;48.542;-2.970;2023-03-03T04:54:04;12.73;;;5.65;;
77136;SDS011;66102;48.542;-2.970;2023-03-03T04:56:30;18.27;;;6.60;;
77136;SDS011;66102;48.542;-2.970;2023-03-03T04:58:56;17.85;;;5.43;;
77136;SDS011;66102;48.542;-2.970;2023-03-03T05:01:22;16.95;;;6.40;;
77136;SDS011;66102;48.542;-2.970;2023-03-03T05:03:48;19.10;;;6.20;;
77136;SDS011;66102;48.542;-2.970;2023-03-03T05:06:15;17.98;;;6.57;;
77136;SDS011;66102;48.542;-2.970;2023-03-03T05:08:42;19.05;;;6.53;;
77136;SDS011;66102;48.542;-2.970;2023-03-03T05:11:09;15.20;;;6.15;;
77136;SDS011;66102;48.542;-2.970;2023-03-03T05:13:35;14.50;;;7.03;;
77136;SDS011;66102;48.542;-2.970;2023-03-03T05:16:01;18.52;;;5.88;;
77136;SDS011;66102;48.542;-2.970;2023-03-03T05:18:27;14.27;;;6.32;;
77136;SDS011;66102;48.542;-2.970;2023-03-03T05:20:53;20.63;;;6.85;;
77136;SDS011;66102;48.542;-2.970;2023-03-03T05:23:20;14.90;;;6.72;;
77136;SDS011;66102;48.542;-2.970;2023-03-03T05:25:46;15.00;;;5.93;;
77136;SDS011;66102;48.542;-2.970;2023-03-03T05:28:12;13.88;;;6.32;;
77136;SDS011;66102;48.542;-2.970;2023-03-03T05:30:38;19.83;;;6.85;;
77136;SDS011;66102;48.542;-2.970;2023-03-03T05:33:05;18.92;;;7.25;;
77136;SDS011;66102;48.542;-2.970;2023-03-03T05:35:31;19.88;;;6.45;;
77136;SDS011;66102;48.542;-2.970;2023-03-03T05:37:57;16.15;;;6.25;;
77136;SDS011;66102;48.542;-2.970;2023-03-03T05:40:24;18.88;;;6.95;;
77136;SDS011;66102;48.542;-2.970;2023-03-03T05:42:50;19.55;;;6.13;;
77136;SDS011;66102;48.542;-2.970;2023-03-03T05:45:16;16.10;;;6.43;;
77136;SDS011;66102;48.542;-2.970;2023-03-03T05:47:48;14.65;;;5.32;;
77136;SDS011;66102;48.542;-2.970;2023-03-03T05:50:14;14.30;;;6.70;;
77136;SDS011;66102;48.542;-2.970;2023-03-03T05:52:41;16.52;;;6.18;;
77136;SDS011;66102;48.542;-2.970;2023-03-03T05:55:07;17.63;;;6.70;;
77136;SDS011;66102;48.542;-2.970;2023-03-03T05:57:33;13.70;;;5.90;;
77136;SDS011;66102;48.542;-2.970;2023-03-03T06:00:00;16.20;;;6.45;;
77136;SDS011;66102;48.542;-2.970;2023-03-03T06:02:27;14.38;;;6.43;;
77136;SDS011;66102;48.542;-2.970;2023-03-03T06:04:53;18.42;;;6.15;;
77136;SDS011;66102;48.542;-2.970;2023-03-03T06:07:19;16.83;;;6.25;;
77136;SDS011;66102;48.542;-2.970;2023-03-03T06:09:45;14.90;;;5.55;;
77136;SDS011;66102;48.542;-2.970;2023-03-03T06:12:11;17.25;;;6.47;;
77136;SDS011;66102;48.542;-2.970;2023-03-03T06:14:37;16.63;;;6.18;;
77136;SDS011;66102;48.542;-2.970;2023-03-03T06:17:03;16.73;;;5.88;;
77136;SDS011;66102;48.542;-2.970;2023-03-03T06:19:30;16.40;;;5.93;;
77136;SDS011;66102;48.542;-2.970;2023-03-03T06:21:56;18.25;;;6.88;;
77136;SDS011;66102;48.542;-2.970;2023-03-03T06:24:22;12.63;;;5.22;;
77136;SDS011;66102;48.542;-2.970;2023-03-03T06:26:50;17.38;;;5.93;;
77136;SDS011;66102;48.542;-2.970;2023-03-03T06:29:17;15.50;;;6.07;;
77136;SDS011;66102;48.542;-2.970;2023-03-03T06:31:43;16.20;;;6.47;;
77136;SDS011;66102;48.542;-2.970;2023-03-03T06:34:09;17.20;;;6.00;;
77136;SDS011;66102;48.542;-2.970;2023-03-03T06:36:35;19.15;;;6.00;;
77136;SDS011;66102;48.542;-2.970;2023-03-03T06:39:01;13.35;;;6.28;;
77136;SDS011;66102;48.542;-2.970;2023-03-03T06:41:28;22.65;;;6.43;;
77136;SDS011;66102;48.542;-2.970;2023-03-03T06:43:55;15.70;;;6.05;;
77136;SDS011;66102;48.542;-2.970;2023-03-03T06:46:22;13.02;;;5.50;;
77136;SDS011;66102;48.542;-2.970;2023-03-03T06:48:48;14.90;;;6.07;;
77136;SDS011;66102;48.542;-2.970;2023-03-03T06:51:24;15.23;;;5.63;;
77136;SDS011;66102;48.542;-2.970;2023-03-03T06:56:18;16.52;;;6.45;;
77136;SDS011;66102;48.542;-2.970;2023-03-03T06:58:44;13.38;;;5.43;;
77136;SDS011;66102;48.542;-2.970;2023-03-03T07:01:15;14.82;;;6.40;;
77136;SDS011;66102;48.542;-2.970;2023-03-03T07:03:41;17.27;;;5.70;;
77136;SDS011;66102;48.542;-2.970;2023-03-03T07:06:12;18.50;;;5.90;;
77136;SDS011;66102;48.542;-2.970;2023-03-03T07:08:39;13.73;;;5.80;;
77136;SDS011;66102;48.542;-2.970;2023-03-03T07:11:07;15.52;;;6.45;;
77136;SDS011;66102;48.542;-2.970;2023-03-03T07:13:33;19.40;;;6.00;;
77136;SDS011;66102;48.542;-2.970;2023-03-03T07:16:02;14.50;;;5.65;;
77136;SDS011;66102;48.542;-2.970;2023-03-03T07:18:36;18.25;;;6.43;;
77136;SDS011;66102;48.542;-2.970;2023-03-03T07:21:17;14.52;;;5.20;;
77136;SDS011;66102;48.542;-2.970;2023-03-03T07:23:45;14.45;;;5.60;;
77136;SDS011;66102;48.542;-2.970;2023-03-03T07:26:12;15.40;;;5.72;;
77136;SDS011;66102;48.542;-2.970;2023-03-03T07:28:41;12.60;;;5.00;;
77136;SDS011;66102;48.542;-2.970;2023-03-03T07:31:30;12.20;;;4.90;;
77136;SDS011;66102;48.542;-2.970;2023-03-03T07:33:53;11.02;;;4.72;;
77136;SDS011;66102;48.542;-2.970;2023-03-03T07:36:26;16.20;;;4.57;;
77136;SDS011;66102;48.542;-2.970;2023-03-03T07:38:53;13.13;;;5.28;;
77136;SDS011;66102;48.542;-2.970;2023-03-03T07:41:19;14.57;;;5.82;;
77136;SDS011;66102;48.542;-2.970;2023-03-03T07:46:36;20.60;;;5.97;;
77136;SDS011;66102;48.542;-2.970;2023-03-03T07:49:50;15.55;;;4.63;;
77136;SDS011;66102;48.542;-2.970;2023-03-03T07:51:55;13.10;;;5.13;;
77136;SDS011;66102;48.542;-2.970;2023-03-03T07:54:37;15.02;;;4.75;;
77136;SDS011;66102;48.542;-2.970;2023-03-03T07:57:10;15.23;;;5.03;;
77136;SDS011;66102;48.542;-2.970;2023-03-03T07:59:51;12.73;;;4.07;;
77136;SDS011;66102;48.542;-2.970;2023-03-03T08:04:45;17.38;;;4.93;;
77136;SDS011;66102;48.542;-2.970;2023-03-03T08:07:17;11.23;;;3.70;;
77136;SDS011;66102;48.542;-2.970;2023-03-03T08:09:47;11.57;;;3.42;;
77136;SDS011;66102;48.542;-2.970;2023-03-03T08:14:40;11.18;;;3.17;;
77136;SDS011;66102;48.542;-2.970;2023-03-03T08:17:17;9.43;;;3.85;;
77136;SDS011;66102;48.542;-2.970;2023-03-03T08:19:45;11.25;;;4.53;;
77136;SDS011;66102;48.542;-2.970;2023-03-03T08:22:12;11.27;;;4.20;;
77136;SDS011;66102;48.542;-2.970;2023-03-03T08:24:40;15.55;;;4.03;;
77136;SDS011;66102;48.542;-2.970;2023-03-03T08:27:06;12.27;;;3.85;;
77136;SDS011;66102;48.542;-2.970;2023-03-03T08:29:32;12.95;;;3.97;;
77136;SDS011;66102;48.542;-2.970;2023-03-03T08:31:58;13.57;;;3.60;;
77136;SDS011;66102;48.542;-2.970;2023-03-03T08:34:24;14.30;;;3.80;;
77136;SDS011;66102;48.542;-2.970;2023-03-03T08:36:50;10.63;;;3.88;;
77136;SDS011;66102;48.542;-2.970;2023-03-03T08:39:16;12.60;;;4.00;;
77136;SDS011;66102;48.542;-2.970;2023-03-03T08:41:42;10.93;;;3.58;;
77136;SDS011;66102;48.542;-2.970;2023-03-03T08:44:10;13.85;;;3.92;;
77136;SDS011;66102;48.542;-2.970;2023-03-03T08:46:36;13.90;;;3.92;;
77136;SDS011;66102;48.542;-2.970;2023-03-03T08:49:02;10.85;;;3.85;;
77136;SDS011;66102;48.542;-2.970;2023-03-03T08:51:28;14.27;;;4.28;;
77136;SDS011;66102;48.542;-2.970;2023-03-03T08:53:55;11.05;;;3.90;;
77136;SDS011;66102;48.542;-2.970;2023-03-03T08:56:21;12.85;;;4.30;;
77136;SDS011;66102;48.542;-2.970;2023-03-03T08:58:47;12.57;;;4.22;;
77136;SDS011;66102;48.542;-2.970;2023-03-03T09:01:13;15.48;;;4.55;;
77136;SDS011;66102;48.542;-2.970;2023-03-03T09:03:40;11.95;;;3.60;;
77136;SDS011;66102;48.542;-2.970;2023-03-03T09:06:07;15.50;;;4.05;;
77136;SDS011;66102;48.542;-2.970;2023-03-03T09:08:33;12.27;;;4.32;;
77136;SDS011;66102;48.542;-2.970;2023-03-03T09:10:59;11.75;;;3.40;;
77136;SDS011;66102;48.542;-2.970;2023-03-03T09:13:26;8.98;;;3.92;;
77136;SDS011;66102;48.542;-2.970;2023-03-03T09:15:53;11.15;;;4.38;;
77136;SDS011;66102;48.542;-2.970;2023-03-03T09:18:21;11.45;;;3.92;;
77136;SDS011;66102;48.542;-2.970;2023-03-03T09:20:51;15.50;;;4.10;;
77136;SDS011;66102;48.542;-2.970;2023-03-03T09:25:54;9.90;;;2.72;;
77136;SDS011;66102;48.542;-2.970;2023-03-03T09:30:53;12.45;;;3.90;;
77136;SDS011;66102;48.542;-2.970;2023-03-03T09:38:40;11.38;;;3.45;;
77136;SDS011;66102;48.542;-2.970;2023-03-03T09:43:41;16.80;;;3.65;;
77136;SDS011;66102;48.542;-2.970;2023-03-03T09:56:36;9.68;;;2.83;;
77136;SDS011;66102;48.542;-2.970;2023-03-03T10:06:44;9.18;;;3.03;;
77136;SDS011;66102;48.542;-2.970;2023-03-03T10:12:02;11.68;;;2.60;;
77136;SDS011;66102;48.542;-2.970;2023-03-03T10:17:05;8.50;;;2.67;;
77136;SDS011;66102;48.542;-2.970;2023-03-03T10:19:42;11.98;;;3.03;;
77136;SDS011;66102;48.542;-2.970;2023-03-03T10:22:18;12.75;;;2.95;;
77136;SDS011;66102;48.542;-2.970;2023-03-03T10:24:47;10.68;;;3.30;;
77136;SDS011;66102;48.542;-2.970;2023-03-03T10:32:35;8.70;;;3.00;;
77136;SDS011;66102;48.542;-2.970;2023-03-03T10:40:10;15.07;;;3.80;;
77136;SDS011;66102;48.542;-2.970;2023-03-03T10:42:44;8.15;;;3.20;;
77136;SDS011;66102;48.542;-2.970;2023-03-03T10:53:33;9.88;;;3.28;;
77136;SDS011;66102;48.542;-2.970;2023-03-03T10:58:49;9.30;;;2.50;;
77136;SDS011;66102;48.542;-2.970;2023-03-03T11:01:28;11.23;;;3.28;;
77136;SDS011;66102;48.542;-2.970;2023-03-03T11:14:40;7.85;;;2.58;;
77136;SDS011;66102;48.542;-2.970;2023-03-03T11:17:56;11.02;;;2.83;;
77136;SDS011;66102;48.542;-2.970;2023-03-03T11:20:45;8.20;;;2.65;;
77136;SDS011;66102;48.542;-2.970;2023-03-03T11:22:56;8.30;;;2.55;;
77136;SDS011;66102;48.542;-2.970;2023-03-03T11:25:28;9.98;;;2.85;;
77136;SDS011;66102;48.542;-2.970;2023-03-03T11:27:59;9.98;;;2.42;;
77136;SDS011;66102;48.542;-2.970;2023-03-03T11:36:12;8.13;;;2.53;;
77136;SDS011;66102;48.542;-2.970;2023-03-03T11:38:22;7.80;;;2.05;;
77136;SDS011;66102;48.542;-2.970;2023-03-03T11:40:53;11.50;;;2.88;;
77136;SDS011;66102;48.542;-2.970;2023-03-03T11:43:34;6.63;;;2.00;;
77136;SDS011;66102;48.542;-2.970;2023-03-03T11:46:05;7.05;;;1.73;;
77136;SDS011;66102;48.542;-2.970;2023-03-03T11:51:09;7.07;;;1.70;;
77136;SDS011;66102;48.542;-2.970;2023-03-03T11:53:39;8.45;;;2.13;;
77136;SDS011;66102;48.542;-2.970;2023-03-03T11:58:44;9.77;;;2.30;;
77136;SDS011;66102;48.542;-2.970;2023-03-03T12:06:20;9.02;;;2.28;;
77136;SDS011;66102;48.542;-2.970;2023-03-03T12:09:02;9.98;;;3.33;;
77136;SDS011;66102;48.542;-2.970;2023-03-03T12:11:32;12.60;;;2.40;;
77136;SDS011;66102;48.542;-2.970;2023-03-03T12:16:40;10.25;;;2.00;;
77136;SDS011;66102;48.542;-2.970;2023-03-03T12:19:14;9.63;;;2.45;;
77136;SDS011;66102;48.542;-2.970;2023-03-03T12:24:33;10.13;;;2.47;;
77136;SDS011;66102;48.542;-2.970;2023-03-03T12:27:08;9.38;;;1.80;;
77136;SDS011;66102;48.542;-2.970;2023-03-03T12:34:43;9.23;;;2.42;;
77136;SDS011;66102;48.542;-2.970;2023-03-03T12:48:08;9.70;;;2.58;;
77136;SDS011;66102;48.542;-2.970;2023-03-03T12:50:49;11.75;;;3.08;;
77136;SDS011;66102;48.542;-2.970;2023-03-03T12:58:27;9.13;;;2.25;;
77136;SDS011;66102;48.542;-2.970;2023-03-03T13:01:07;11.48;;;2.40;;
77136;SDS011;66102;48.542;-2.970;2023-03-03T13:09:39;11.45;;;2.80;;
77136;SDS011;66102;48.542;-2.970;2023-03-03T13:14:24;11.07;;;2.40;;
77136;SDS011;66102;48.542;-2.970;2023-03-03T13:22:08;10.43;;;2.65;;
77136;SDS011;66102;48.542;-2.970;2023-03-03T13:27:07;11.65;;;2.83;;
77136;SDS011;66102;48.542;-2.970;2023-03-03T13:29:49;7.53;;;1.90;;
77136;SDS011;66102;48.542;-2.970;2023-03-03T13:34:50;10.63;;;2.45;;
77136;SDS011;66102;48.542;-2.970;2023-03-03T13:37:21;8.90;;;2.47;;
77136;SDS011;66102;48.542;-2.970;2023-03-03T13:39:52;13.98;;;3.15;;
77136;SDS011;66102;48.542;-2.970;2023-03-03T13:42:36;11.98;;;2.50;;
77136;SDS011;66102;48.542;-2.970;2023-03-03T13:45:26;9.30;;;2.80;;
77136;SDS011;66102;48.542;-2.970;2023-03-03T13:55:21;14.40;;;5.07;;
77136;SDS011;66102;48.542;-2.970;2023-03-03T13:57:57;14.88;;;3.00;;
77136;SDS011;66102;48.542;-2.970;2023-03-03T14:05:55;18.75;;;5.22;;
77136;SDS011;66102;48.542;-2.970;2023-03-03T14:08:34;15.38;;;3.00;;
77136;SDS011;66102;48.542;-2.970;2023-03-03T14:16:10;10.30;;;2.60;;
77136;SDS011;66102;48.542;-2.970;2023-03-03T14:18:40;12.13;;;2.55;;
77136;SDS011;66102;48.542;-2.970;2023-03-03T14:21:13;15.60;;;2.83;;
77136;SDS011;66102;48.542;-2.970;2023-03-03T14:26:16;11.63;;;3.28;;
77136;SDS011;66102;48.542;-2.970;2023-03-03T14:28:43;10.93;;;2.75;;
77136;SDS011;66102;48.542;-2.970;2023-03-03T14:31:28;10.40;;;3.05;;
77136;SDS011;66102;48.542;-2.970;2023-03-03T14:33:56;17.38;;;2.92;;
77136;SDS011;66102;48.542;-2.970;2023-03-03T14:36:27;10.27;;;2.72;;
77136;SDS011;66102;48.542;-2.970;2023-03-03T14:41:21;8.85;;;2.72;;
77136;SDS011;66102;48.542;-2.970;2023-03-03T14:46:22;9.52;;;2.60;;
77136;SDS011;66102;48.542;-2.970;2023-03-03T14:48:58;11.93;;;3.00;;
77136;SDS011;66102;48.542;-2.970;2023-03-03T14:51:26;11.43;;;2.28;;
77136;SDS011;66102;48.542;-2.970;2023-03-03T14:53:53;8.65;;;2.40;;
77136;SDS011;66102;48.542;-2.970;2023-03-03T14:56:24;10.93;;;2.80;;
77136;SDS011;66102;48.542;-2.970;2023-03-03T14:58:52;10.52;;;3.10;;
77136;SDS011;66102;48.542;-2.970;2023-03-03T15:03:57;7.80;;;2.80;;
77136;SDS011;66102;48.542;-2.970;2023-03-03T15:06:28;9.90;;;2.45;;
77136;SDS011;66102;48.542;-2.970;2023-03-03T15:08:54;11.52;;;2.33;;
77136;SDS011;66102;48.542;-2.970;2023-03-03T15:11:27;8.57;;;2.13;;
77136;SDS011;66102;48.542;-2.970;2023-03-03T15:14:08;8.30;;;1.95;;
77136;SDS011;66102;48.542;-2.970;2023-03-03T15:16:35;12.25;;;2.30;;
77136;SDS011;66102;48.542;-2.970;2023-03-03T15:21:49;9.68;;;2.30;;
77136;SDS011;66102;48.542;-2.970;2023-03-03T15:24:22;14.25;;;2.75;;
77136;SDS011;66102;48.542;-2.970;2023-03-03T15:26:58;13.63;;;2.60;;
77136;SDS011;66102;48.542;-2.970;2023-03-03T15:40:21;10.90;;;2.33;;
77136;SDS011;66102;48.542;-2.970;2023-03-03T15:43:17;13.15;;;3.70;;
77136;SDS011;66102;48.542;-2.970;2023-03-03T15:45:59;14.00;;;2.75;;
77136;SDS011;66102;48.542;-2.970;2023-03-03T16:02:14;9.18;;;2.10;;
77136;SDS011;66102;48.542;-2.970;2023-03-03T16:04:34;8.52;;;2.22;;
77136;SDS011;66102;48.542;-2.970;2023-03-03T16:07:04;8.65;;;2.90;;
77136;SDS011;66102;48.542;-2.970;2023-03-03T16:24:39;6.70;;;1.73;;
77136;SDS011;66102;48.542;-2.970;2023-03-03T16:32:48;10.95;;;2.30;;
77136;SDS011;66102;48.542;-2.970;2023-03-03T16:35:22;9.73;;;2.53;;
77136;SDS011;66102;48.542;-2.970;2023-03-03T16:37:57;9.07;;;2.00;;
77136;SDS011;66102;48.542;-2.970;2023-03-03T16:42:58;9.23;;;2.47;;
77136;SDS011;66102;48.542;-2.970;2023-03-03T16:45:26;13.00;;;3.10;;
77136;SDS011;66102;48.542;-2.970;2023-03-03T16:47:57;8.05;;;2.20;;
77136;SDS011;66102;48.542;-2.970;2023-03-03T16:58:19;7.50;;;2.53;;
77136;SDS011;66102;48.542;-2.970;2023-03-03T17:00:58;9.13;;;3.00;;
77136;SDS011;66102;48.542;-2.970;2023-03-03T17:06:12;11.25;;;2.28;;
77136;SDS011;66102;48.542;-2.970;2023-03-03T17:09:06;8.35;;;2.40;;
77136;SDS011;66102;48.542;-2.970;2023-03-03T17:11:30;13.75;;;2.80;;
77136;SDS011;66102;48.542;-2.970;2023-03-03T17:14:20;10.88;;;2.95;;
77136;SDS011;66102;48.542;-2.970;2023-03-03T17:27:44;11.45;;;3.53;;
77136;SDS011;66102;48.542;-2.970;2023-03-03T17:32:24;14.00;;;3.17;;
77136;SDS011;66102;48.542;-2.970;2023-03-03T17:37:38;12.18;;;3.28;;
77136;SDS011;66102;48.542;-2.970;2023-03-03T17:45:22;14.90;;;4.45;;
77136;SDS011;66102;48.542;-2.970;2023-03-03T17:47:52;14.10;;;4.32;;
77136;SDS011;66102;48.542;-2.970;2023-03-03T18:11:31;7.18;;;2.05;;
77136;SDS011;66102;48.542;-2.970;2023-03-03T18:21:30;9.50;;;2.67;;
77136;SDS011;66102;48.542;-2.970;2023-03-03T18:26:44;7.68;;;2.20;;
77136;SDS011;66102;48.542;-2.970;2023-03-03T18:36:54;7.00;;;2.20;;
77136;SDS011;66102;48.542;-2.970;2023-03-03T18:39:34;11.82;;;2.42;;
77136;SDS011;66102;48.542;-2.970;2023-03-03T18:44:30;9.65;;;2.53;;
77136;SDS011;66102;48.542;-2.970;2023-03-03T18:46:56;8.65;;;2.80;;
77136;SDS011;66102;48.542;-2.970;2023-03-03T18:57:36;7.57;;;2.55;;
77136;SDS011;66102;48.542;-2.970;2023-03-03T19:00:22;9.18;;;3.00;;
77136;SDS011;66102;48.542;-2.970;2023-03-03T19:02:52;10.40;;;3.22;;
77136;SDS011;66102;48.542;-2.970;2023-03-03T19:05:23;14.13;;;3.05;;
77136;SDS011;66102;48.542;-2.970;2023-03-03T19:11:26;8.57;;;3.22;;
77136;SDS011;66102;48.542;-2.970;2023-03-03T19:16:02;9.38;;;2.85;;
77136;SDS011;66102;48.542;-2.970;2023-03-03T19:23:52;10.40;;;2.92;;
77136;SDS011;66102;48.542;-2.970;2023-03-03T19:36:41;14.32;;;2.83;;
77136;SDS011;66102;48.542;-2.970;2023-03-03T19:39:35;11.18;;;3.00;;
77136;SDS011;66102;48.542;-2.970;2023-03-03T20:15:10;6.18;;;1.92;;
77136;SDS011;66102;48.542;-2.970;2023-03-03T20:17:43;7.95;;;2.30;;
77136;SDS011;66102;48.542;-2.970;2023-03-03T20:23:08;8.15;;;2.30;;
77136;SDS011;66102;48.542;-2.970;2023-03-03T20:25:47;8.98;;;2.50;;
77136;SDS011;66102;48.542;-2.970;2023-03-03T20:59:05;10.15;;;2.10;;
77136;SDS011;66102;48.542;-2.970;2023-03-03T21:04:16;6.72;;;2.05;;
77136;SDS011;66102;48.542;-2.970;2023-03-03T21:06:42;8.02;;;2.05;;
77136;SDS011;66102;48.542;-2.970;2023-03-03T21:09:20;5.25;;;1.90;;
77136;SDS011;66102;48.542;-2.970;2023-03-03T21:11:47;6.60;;;2.50;;
77136;SDS011;66102;48.542;-2.970;2023-03-03T21:16:48;5.97;;;2.28;;
77136;SDS011;66102;48.542;-2.970;2023-03-03T21:19:25;7.97;;;2.65;;
77136;SDS011;66102;48.542;-2.970;2023-03-03T21:21:51;9.20;;;3.05;;